createdAt,value
2019-03-02T00:01:05.118Z,50.90
2019-03-02T00:03:34.880Z,50.70
2019-03-02T00:06:11.314Z,52.30
2019-03-02T00:08:40.500Z,52.00
2019-03-02T00:11:09.341Z,51.60
2019-03-02T00:13:39.806Z,51.70
2019-03-02T00:16:09.636Z,52.60
2019-03-02T00:18:39.200Z,53.40
2019-03-02T00:21:08.061Z,54.80
2019-03-02T00:23:36.907Z,56.00
2019-03-02T00:26:06.212Z,56.10
2019-03-02T00:28:36.404Z,57.20
2019-03-02T00:31:05.285Z,57.70
2019-03-02T00:33:34.097Z,58.70
2019-03-02T00:36:02.904Z,57.90
2019-03-02T00:38:31.769Z,58.30
2019-03-02T00:41:03.793Z,57.80
2019-03-02T00:43:31.167Z,58.10
2019-03-02T00:45:59.989Z,57.30
2019-03-02T00:48:28.841Z,57.10
2019-03-02T00:50:57.702Z,55.20
2019-03-02T00:53:26.497Z,55.50
2019-03-02T00:55:55.275Z,54.00
2019-03-02T00:58:25.671Z,50.90
2019-03-02T01:00:55.053Z,51.80
2019-03-02T01:03:24.073Z,51.60
2019-03-02T01:05:52.942Z,50.30
2019-03-02T01:08:21.774Z,50.80
2019-03-02T01:10:50.637Z,50.30
2019-03-02T01:13:20.154Z,49.60
2019-03-02T01:15:50.057Z,49.30
2019-03-02T01:18:18.871Z,49.40
2019-03-02T01:20:49.450Z,50.10
2019-03-02T01:23:18.268Z,50.20
2019-03-02T01:25:48.869Z,50.10
2019-03-02T01:28:17.606Z,49.10
2019-03-02T01:30:46.411Z,49.00
2019-03-02T01:33:15.419Z,46.00
2019-03-02T01:35:44.241Z,43.70
2019-03-02T01:38:15.708Z,39.00
2019-03-02T01:40:43.597Z,38.90
2019-03-02T01:43:12.402Z,36.20
2019-03-02T01:45:41.199Z,35.50
2019-03-02T01:48:10.049Z,34.10
2019-03-02T01:50:38.853Z,35.20
2019-03-02T01:53:09.890Z,34.40
2019-03-02T01:55:38.179Z,29.30
2019-03-02T01:58:07.043Z,29.10
2019-03-02T02:00:35.869Z,28.30
2019-03-02T02:03:08.536Z,31.00
2019-03-02T02:05:36.540Z,32.60
2019-03-02T02:08:05.787Z,33.30
2019-03-02T02:10:34.585Z,34.10
2019-03-02T02:13:06.233Z,33.90
2019-03-02T02:15:34.471Z,34.20
2019-03-02T02:18:03.257Z,33.30
2019-03-02T02:20:32.070Z,33.80
2019-03-02T02:23:00.934Z,35.00
2019-03-02T02:25:32.606Z,33.10
2019-03-02T02:28:00.334Z,33.70
2019-03-02T02:30:29.239Z,34.40
2019-03-02T02:33:04.270Z,35.30
2019-03-02T02:35:39.352Z,36.40
2019-03-02T02:38:03.970Z,37.60
2019-03-02T02:40:32.850Z,37.20
2019-03-02T02:43:01.646Z,34.20
2019-03-02T02:45:30.467Z,34.70
2019-03-02T02:48:02.534Z,36.30
2019-03-02T02:50:31.607Z,37.60
2019-03-02T02:53:06.024Z,37.90
2019-03-02T02:55:31.168Z,37.90
2019-03-02T02:57:59.967Z,36.60
2019-03-02T03:00:29.965Z,37.00
2019-03-02T03:02:58.896Z,37.70
2019-03-02T03:05:27.970Z,38.70
2019-03-02T03:07:56.885Z,40.90
2019-03-02T03:10:29.909Z,41.10
2019-03-02T03:13:02.215Z,43.90
2019-03-02T03:15:37.066Z,43.70
2019-03-02T03:18:07.055Z,45.50
2019-03-02T03:20:37.520Z,46.10
2019-03-02T03:23:06.506Z,48.60
2019-03-02T03:25:35.492Z,48.60
2019-03-02T03:28:04.627Z,46.80
2019-03-02T03:30:36.049Z,49.50
2019-03-02T03:33:04.392Z,51.80
2019-03-02T03:35:33.447Z,53.40
2019-03-02T03:38:02.465Z,54.50
2019-03-02T03:40:31.647Z,55.30
2019-03-02T03:43:03.095Z,56.20
2019-03-02T03:45:31.315Z,55.90
2019-03-02T03:48:00.208Z,56.00
2019-03-02T03:50:29.053Z,56.90
2019-03-02T03:52:58.086Z,58.70
2019-03-02T03:55:27.574Z,59.20
2019-03-02T03:58:00.597Z,60.40
2019-03-02T04:00:27.581Z,60.70
2019-03-02T04:03:02.794Z,61.40
2019-03-02T04:05:31.720Z,62.40
2019-03-02T04:08:00.808Z,62.90
2019-03-02T04:10:29.813Z,64.20
2019-03-02T04:13:04.249Z,64.60
2019-03-02T04:15:29.648Z,66.50
2019-03-02T04:17:58.787Z,66.80
2019-03-02T04:20:34.102Z,67.40
2019-03-02T04:23:05.561Z,68.40
2019-03-02T04:25:34.536Z,68.80
2019-03-02T04:28:03.440Z,70.00
2019-03-02T04:30:32.929Z,69.80
2019-03-02T04:33:05.834Z,70.50
2019-03-02T04:35:33.797Z,71.80
2019-03-02T04:38:03.119Z,71.80
2019-03-02T04:40:32.147Z,72.00
2019-03-02T04:43:01.044Z,72.90
2019-03-02T04:45:30.086Z,74.20
2019-03-02T04:47:59.981Z,73.50
2019-03-02T04:50:29.635Z,74.50
2019-03-02T04:52:58.509Z,75.40
2019-03-02T04:55:27.389Z,75.60
2019-03-02T04:57:56.462Z,75.00
2019-03-02T05:00:28.681Z,75.60
2019-03-02T05:02:56.157Z,75.60
2019-03-02T05:05:25.077Z,76.60
2019-03-02T05:07:54.238Z,76.60
2019-03-02T05:10:24.642Z,76.60
2019-03-02T05:12:53.939Z,76.70
2019-03-02T05:15:22.951Z,77.60
2019-03-02T05:17:51.954Z,78.30
2019-03-02T05:20:20.904Z,79.70
2019-03-02T05:22:50.846Z,78.70
2019-03-02T05:25:20.513Z,79.50
2019-03-02T05:27:49.442Z,79.70
2019-03-02T05:30:18.375Z,80.00
2019-03-02T05:32:47.793Z,80.00
2019-03-02T05:35:17.942Z,78.90
2019-03-02T05:37:46.848Z,80.50
2019-03-02T05:40:15.966Z,80.40
2019-03-02T05:42:48.486Z,81.50
2019-03-02T05:45:15.694Z,81.50
2019-03-02T05:47:44.813Z,82.40
2019-03-02T05:50:13.877Z,82.00
2019-03-02T05:52:42.950Z,83.10
2019-03-02T05:55:14.347Z,82.20
2019-03-02T05:57:42.664Z,83.10
2019-03-02T06:00:12.176Z,82.20
2019-03-02T06:02:44.191Z,81.50
2019-03-02T06:05:13.157Z,82.40
2019-03-02T06:07:43.076Z,82.60
2019-03-02T06:10:18.030Z,83.30
2019-03-02T06:12:47.925Z,83.60
2019-03-02T06:15:17.650Z,83.40
2019-03-02T06:17:46.660Z,83.90
2019-03-02T06:20:15.611Z,83.90
2019-03-02T06:22:44.478Z,85.20
2019-03-02T06:25:19.583Z,84.80
2019-03-02T06:27:47.194Z,85.40
2019-03-02T06:30:14.858Z,85.30
2019-03-02T06:32:43.810Z,85.30
2019-03-02T06:35:12.834Z,86.50
2019-03-02T06:37:41.746Z,87.30
2019-03-02T06:40:10.775Z,86.80
2019-03-02T06:42:41.973Z,87.00
2019-03-02T06:45:10.837Z,87.90
2019-03-02T06:47:40.004Z,88.00
2019-03-02T06:50:10.921Z,87.80
2019-03-02T06:52:39.840Z,89.10
2019-03-02T06:55:09.326Z,90.20
2019-03-02T06:57:38.313Z,90.50
2019-03-02T07:00:10.764Z,90.40
2019-03-02T07:02:39.689Z,90.30
2019-03-02T07:05:08.781Z,90.50
2019-03-02T07:07:37.750Z,90.50
2019-03-02T07:10:09.322Z,90.60
2019-03-02T07:12:41.731Z,90.90
2019-03-02T07:15:13.295Z,90.80
2019-03-02T07:18:02.167Z,90.70
2019-03-02T07:20:32.344Z,90.90
2019-03-02T07:23:01.271Z,90.70
2019-03-02T07:25:30.181Z,91.30
2019-03-02T07:28:01.783Z,91.00
2019-03-02T07:30:29.814Z,91.30
2019-03-02T07:32:58.710Z,91.30
2019-03-02T07:35:27.562Z,91.40
2019-03-02T07:37:59.576Z,91.40
2019-03-02T07:40:28.659Z,91.40
2019-03-02T07:42:57.501Z,91.20
2019-03-02T07:45:27.232Z,91.30
2019-03-02T07:48:00.162Z,91.20
2019-03-02T07:50:29.549Z,91.20
2019-03-02T07:52:57.475Z,91.20
2019-03-02T07:55:26.344Z,91.20
2019-03-02T07:57:55.250Z,91.40
2019-03-02T08:00:24.274Z,91.50
2019-03-02T08:02:53.342Z,91.30
2019-03-02T08:05:22.369Z,91.50
2019-03-02T08:07:51.282Z,91.60
2019-03-02T08:10:20.320Z,91.60
2019-03-02T08:12:52.398Z,91.90
2019-03-02T08:15:24.466Z,91.80
2019-03-02T08:17:53.303Z,91.50
2019-03-02T08:20:24.580Z,91.50
2019-03-02T08:22:52.965Z,90.90
2019-03-02T08:25:21.821Z,91.70
2019-03-02T08:27:51.564Z,91.70
2019-03-02T08:30:20.832Z,91.00
2019-03-02T08:32:49.725Z,90.80
2019-03-02T08:35:18.739Z,91.30
2019-03-02T08:37:47.665Z,91.30
2019-03-02T08:40:19.418Z,91.30
2019-03-02T08:42:47.775Z,91.10
2019-03-02T08:45:17.008Z,91.60
2019-03-02T08:47:45.930Z,90.40
2019-03-02T08:50:17.628Z,90.00
2019-03-02T08:52:45.836Z,89.70
2019-03-02T08:55:15.383Z,89.00
2019-03-02T08:57:44.543Z,89.20
2019-03-02T09:00:19.024Z,89.60
2019-03-02T09:02:48.150Z,89.90
2019-03-02T09:05:17.189Z,88.10
2019-03-02T09:07:46.176Z,87.80
2019-03-02T09:10:15.373Z,85.80
2019-03-02T09:12:44.890Z,83.30
2019-03-02T09:15:16.288Z,83.40
2019-03-02T09:17:45.201Z,83.80
2019-03-02T09:20:14.879Z,81.90
2019-03-02T09:22:43.726Z,80.80
2019-03-02T09:25:14.558Z,78.10
2019-03-02T09:27:43.522Z,77.10
2019-03-02T09:30:14.663Z,76.50
2019-03-02T09:32:47.079Z,74.10
2019-03-02T09:35:16.155Z,72.80
2019-03-02T09:37:46.348Z,70.20
2019-03-02T09:40:27.439Z,70.80
2019-03-02T09:43:01.474Z,69.40
2019-03-02T09:45:30.401Z,70.50
2019-03-02T09:48:11.438Z,70.20
2019-03-02T09:50:40.346Z,71.20
2019-03-02T09:53:17.234Z,69.90
2019-03-02T09:55:46.053Z,71.20
2019-03-02T09:58:15.037Z,71.10
2019-03-02T10:01:17.335Z,72.80
2019-03-02T10:03:48.866Z,72.90
2019-03-02T10:06:26.667Z,73.90
2019-03-02T10:08:56.647Z,76.20
2019-03-02T10:11:37.961Z,78.00
2019-03-02T10:14:28.134Z,79.60
2019-03-02T10:16:58.174Z,80.30
2019-03-02T10:19:39.413Z,80.70
2019-03-02T10:22:08.309Z,81.60
2019-03-02T10:24:37.339Z,81.20
2019-03-02T10:27:06.261Z,79.70
2019-03-02T10:29:35.247Z,80.00
2019-03-02T10:32:06.198Z,81.00
2019-03-02T10:34:38.479Z,80.90
2019-03-02T10:37:07.265Z,81.50
2019-03-02T10:39:36.713Z,81.00
2019-03-02T10:42:15.202Z,81.20
2019-03-02T10:44:48.380Z,80.70
2019-03-02T10:47:17.305Z,81.50
2019-03-02T10:49:52.256Z,80.80
2019-03-02T10:52:22.156Z,80.60
2019-03-02T10:54:50.987Z,80.80
2019-03-02T10:57:19.994Z,81.10
2019-03-02T11:00:10.541Z,80.10
2019-03-02T11:02:39.358Z,80.90
2019-03-02T11:05:30.746Z,81.10
2019-03-02T11:08:17.487Z,81.30
2019-03-02T11:10:58.571Z,81.00
2019-03-02T11:13:51.917Z,80.30
2019-03-02T11:16:25.672Z,80.80
2019-03-02T11:19:19.641Z,81.50
2019-03-02T11:22:25.770Z,81.60
2019-03-02T11:25:13.712Z,82.20
2019-03-02T11:28:07.949Z,80.80
2019-03-02T11:30:54.983Z,82.10
2019-03-02T11:33:55.325Z,82.50
2019-03-02T11:36:50.679Z,82.60
2019-03-02T11:39:45.893Z,83.00
2019-03-02T11:42:26.713Z,83.40
2019-03-02T11:45:14.674Z,83.00
2019-03-02T11:48:01.615Z,83.70
2019-03-02T11:50:41.588Z,84.40
2019-03-02T11:53:23.942Z,85.10
2019-03-02T11:56:11.010Z,85.30
2019-03-02T11:59:09.456Z,85.60
2019-03-02T12:01:53.249Z,87.10
2019-03-02T12:04:33.982Z,88.90
2019-03-02T12:07:20.771Z,87.70
2019-03-02T12:09:57.100Z,88.20
2019-03-02T12:12:41.940Z,87.50
2019-03-02T12:15:57.630Z,88.30
2019-03-02T12:18:44.330Z,88.20
2019-03-02T12:21:28.481Z,87.30
2019-03-02T12:24:23.278Z,87.20
2019-03-02T12:27:22.294Z,87.20
2019-03-02T12:30:07.029Z,87.80
2019-03-02T12:32:53.878Z,86.60
2019-03-02T12:35:39.384Z,86.70
2019-03-02T12:38:16.933Z,89.60
2019-03-02T12:41:12.092Z,90.30
2019-03-02T12:43:58.994Z,84.40
2019-03-02T12:46:59.018Z,79.00
2019-03-02T12:49:49.113Z,77.30
2019-03-02T12:52:37.058Z,72.50
2019-03-02T12:55:28.257Z,60.80
2019-03-02T12:58:08.245Z,58.00
2019-03-02T13:00:57.827Z,62.00
2019-03-02T13:03:48.335Z,58.50
2019-03-02T13:06:46.366Z,55.00
2019-03-02T13:09:36.894Z,58.30
2019-03-02T13:12:20.893Z,60.90
2019-03-02T13:15:21.539Z,63.00
2019-03-02T13:18:13.966Z,66.60
2019-03-02T13:20:52.192Z,67.80
2019-03-02T13:23:43.536Z,68.00
2019-03-02T13:26:24.494Z,71.30
2019-03-02T13:29:00.790Z,71.70
2019-03-02T13:31:48.469Z,70.20
2019-03-02T13:34:27.463Z,68.80
2019-03-02T13:37:04.144Z,71.10
2019-03-02T13:39:41.501Z,71.20
2019-03-02T13:42:27.362Z,70.50
2019-03-02T13:45:22.042Z,68.40
2019-03-02T13:48:17.779Z,67.00
2019-03-02T13:51:15.130Z,66.40
2019-03-02T13:54:03.038Z,65.60
2019-03-02T13:56:51.250Z,64.50
2019-03-02T13:59:32.846Z,62.80
2019-03-02T14:02:16.848Z,63.40
2019-03-02T14:04:55.170Z,66.00
2019-03-02T14:07:43.130Z,66.40
2019-03-02T14:10:34.588Z,66.30
2019-03-02T14:13:22.802Z,67.70
2019-03-02T14:16:17.782Z,67.80
2019-03-02T14:18:55.501Z,65.60
2019-03-02T14:21:42.677Z,66.80
2019-03-02T14:24:43.236Z,67.00
2019-03-02T14:27:47.630Z,63.30
2019-03-02T14:31:19.638Z,63.80
2019-03-02T14:34:07.258Z,64.80
2019-03-02T14:36:40.455Z,64.90
2019-03-02T14:39:47.626Z,65.00
2019-03-02T14:42:25.625Z,64.70
2019-03-02T14:45:09.694Z,65.70
2019-03-02T14:47:58.790Z,66.10
2019-03-02T14:50:40.285Z,67.80
2019-03-02T14:53:29.703Z,65.90
2019-03-02T14:56:16.608Z,65.00
2019-03-02T14:59:15.475Z,64.40
2019-03-02T15:02:16.627Z,65.30
2019-03-02T15:05:16.183Z,67.40
2019-03-02T15:07:55.409Z,67.70
2019-03-02T15:10:44.970Z,67.10
2019-03-02T15:13:32.436Z,64.80
2019-03-02T15:16:07.572Z,65.70
2019-03-02T15:18:58.412Z,66.20
2019-03-02T15:21:55.827Z,66.60
2019-03-02T15:24:55.403Z,69.00
2019-03-02T15:27:34.745Z,69.40
2019-03-02T15:30:23.230Z,68.80
2019-03-02T15:33:30.342Z,69.80
2019-03-02T15:36:17.914Z,70.70
2019-03-02T15:39:06.027Z,71.70
2019-03-02T15:42:12.325Z,74.00
2019-03-02T15:45:06.520Z,73.70
2019-03-02T15:47:47.520Z,74.20
2019-03-02T15:50:20.193Z,74.70
2019-03-02T15:52:57.491Z,74.20
2019-03-02T15:55:49.408Z,75.20
2019-03-02T15:58:34.438Z,75.80
2019-03-02T16:01:27.349Z,76.30
2019-03-02T16:04:08.079Z,77.50
2019-03-02T16:07:05.415Z,77.30
2019-03-02T16:09:56.348Z,76.40
2019-03-02T16:12:51.612Z,77.00
2019-03-02T16:15:34.483Z,77.10
2019-03-02T16:18:23.765Z,77.10
2019-03-02T16:21:00.965Z,77.30
2019-03-02T16:23:43.551Z,76.60
2019-03-02T16:26:33.851Z,77.90
2019-03-02T16:29:29.362Z,78.10
2019-03-02T16:32:21.129Z,79.00
2019-03-02T16:35:09.866Z,77.80
2019-03-02T16:37:50.041Z,78.20
2019-03-02T16:40:42.190Z,78.40
2019-03-02T16:43:27.140Z,76.60
2019-03-02T16:46:17.433Z,76.50
2019-03-02T16:49:06.117Z,77.10
2019-03-02T16:51:43.710Z,77.30
2019-03-02T16:54:48.827Z,77.10
2019-03-02T16:57:30.387Z,77.40
2019-03-02T17:00:14.733Z,77.60
2019-03-02T17:03:06.877Z,77.10
2019-03-02T17:05:51.939Z,78.00
2019-03-02T17:08:39.124Z,78.20
2019-03-02T17:11:23.925Z,78.80
2019-03-02T17:14:21.115Z,78.90
2019-03-02T17:17:14.463Z,79.60
2019-03-02T17:20:07.250Z,79.00
2019-03-02T17:22:58.895Z,79.20
2019-03-02T17:25:36.520Z,79.80
2019-03-02T17:28:18.286Z,79.60
2019-03-02T17:31:02.699Z,78.90
2019-03-02T17:33:41.940Z,77.70
2019-03-02T17:36:25.645Z,78.50
2019-03-02T17:39:23.675Z,78.00
2019-03-02T17:42:04.124Z,79.10
2019-03-02T17:44:55.292Z,79.80
2019-03-02T17:48:03.593Z,78.70
2019-03-02T17:50:39.585Z,80.50
2019-03-02T17:53:40.132Z,80.50
2019-03-02T17:56:26.769Z,80.90
2019-03-02T17:59:13.315Z,81.10
2019-03-02T18:01:50.595Z,82.50
2019-03-02T18:04:24.831Z,85.20
2019-03-02T18:07:25.021Z,85.90
2019-03-02T18:10:25.539Z,85.90
2019-03-02T18:13:18.233Z,84.60
2019-03-02T18:16:06.688Z,83.60
2019-03-02T18:18:36.109Z,84.40
2019-03-02T18:21:07.252Z,84.10
2019-03-02T18:23:38.729Z,83.00
2019-03-02T18:26:07.753Z,83.60
2019-03-02T18:28:36.926Z,84.20
2019-03-02T18:31:05.962Z,85.50
2019-03-02T18:33:44.420Z,86.40
2019-03-02T18:36:14.541Z,88.00
2019-03-02T18:38:48.961Z,90.10
2019-03-02T18:41:16.659Z,90.60
2019-03-02T18:43:46.426Z,90.50
2019-03-02T18:46:16.335Z,90.80
2019-03-02T18:49:11.358Z,90.70
2019-03-02T18:51:56.154Z,91.00
2019-03-02T18:54:27.349Z,91.20
2019-03-02T18:56:56.632Z,91.70
2019-03-02T18:59:25.669Z,91.50
2019-03-02T19:01:54.810Z,91.40
2019-03-02T19:04:26.563Z,91.10
2019-03-02T19:06:59.381Z,90.80
2019-03-02T19:09:32.039Z,90.70
2019-03-02T19:12:00.066Z,90.50
2019-03-02T19:14:33.222Z,90.70
2019-03-02T19:17:04.345Z,90.20
2019-03-02T19:19:33.563Z,90.20
2019-03-02T19:22:04.925Z,90.30
2019-03-02T19:24:34.042Z,88.60
2019-03-02T19:27:08.521Z,86.50
2019-03-02T19:29:37.578Z,85.80
2019-03-02T19:32:06.971Z,84.20
2019-03-02T19:34:36.017Z,84.10
2019-03-02T19:37:06.146Z,83.20
2019-03-02T19:39:37.375Z,83.10
2019-03-02T19:42:06.620Z,82.50
2019-03-02T19:44:35.638Z,82.80
2019-03-02T19:47:07.537Z,81.30
2019-03-02T19:49:36.559Z,81.20
2019-03-02T19:52:05.701Z,81.60
2019-03-02T19:54:42.511Z,80.20
2019-03-02T19:57:11.564Z,80.10
2019-03-02T19:59:42.658Z,79.60
2019-03-02T20:02:12.763Z,79.70
2019-03-02T20:04:47.564Z,80.30
2019-03-02T20:07:16.718Z,79.60
2019-03-02T20:09:45.845Z,79.50
2019-03-02T20:12:14.910Z,80.80
2019-03-02T20:14:43.950Z,79.20
2019-03-02T20:17:13.062Z,79.30
2019-03-02T20:19:42.840Z,78.50
2019-03-02T20:22:17.687Z,78.40
2019-03-02T20:24:49.166Z,79.30
2019-03-02T20:27:18.218Z,79.00
2019-03-02T20:29:50.237Z,78.30
2019-03-02T20:32:19.178Z,78.20
2019-03-02T20:34:48.182Z,78.20
2019-03-02T20:37:17.351Z,78.00
2019-03-02T20:39:49.401Z,78.70
2019-03-02T20:42:18.302Z,78.60
2019-03-02T20:44:47.287Z,78.20
2019-03-02T20:47:17.256Z,78.60
2019-03-02T20:49:47.255Z,79.10
2019-03-02T20:52:22.410Z,79.30
2019-03-02T20:54:52.345Z,79.20
2019-03-02T20:57:21.349Z,79.40
2019-03-02T20:59:53.716Z,80.30
2019-03-02T21:02:25.686Z,79.60
2019-03-02T21:04:55.509Z,79.60
2019-03-02T21:07:27.156Z,79.30
2019-03-02T21:09:56.657Z,80.50
2019-03-02T21:12:29.456Z,79.90
2019-03-02T21:15:00.835Z,80.10
2019-03-02T21:17:41.166Z,80.30
2019-03-02T21:20:11.957Z,81.00
2019-03-02T21:22:42.276Z,81.60
2019-03-02T21:25:24.122Z,81.60
2019-03-02T21:27:53.575Z,81.90
2019-03-02T21:30:23.404Z,82.20
2019-03-02T21:32:53.391Z,81.30
2019-03-02T21:35:23.366Z,82.00
2019-03-02T21:37:54.491Z,82.30
2019-03-02T21:40:43.374Z,82.20
2019-03-02T21:43:13.446Z,82.40
2019-03-02T21:45:43.325Z,81.90
2019-03-02T21:48:21.790Z,82.70
2019-03-02T21:50:52.001Z,82.30
2019-03-02T21:53:25.521Z,83.40
2019-03-02T21:56:00.367Z,83.70
2019-03-02T21:58:29.388Z,84.40
2019-03-02T22:00:59.379Z,86.10
2019-03-02T22:03:30.036Z,86.00
2019-03-02T22:05:59.015Z,86.00
2019-03-02T22:08:28.110Z,86.60
2019-03-02T22:11:15.780Z,87.60
2019-03-02T22:13:53.574Z,87.60
2019-03-02T22:16:34.712Z,89.00
2019-03-02T22:19:10.762Z,90.30
2019-03-02T22:21:44.831Z,90.30
2019-03-02T22:24:13.911Z,90.80
2019-03-02T22:26:42.883Z,90.90
2019-03-02T22:29:11.870Z,91.20
2019-03-02T22:31:46.958Z,92.00
2019-03-02T22:34:16.153Z,92.40
2019-03-02T22:36:45.247Z,92.70
2019-03-02T22:39:14.309Z,92.90
2019-03-02T22:41:43.298Z,93.70
2019-03-02T22:44:12.399Z,94.10
2019-03-02T22:46:47.438Z,95.20
2019-03-02T22:49:17.439Z,95.40
2019-03-02T22:51:47.765Z,95.60
2019-03-02T22:54:35.185Z,96.60
2019-03-02T22:57:31.539Z,97.30
2019-03-02T23:00:59.610Z,97.00
2019-03-02T23:03:28.253Z,97.30
2019-03-02T23:06:03.256Z,98.20
2019-03-02T23:08:44.315Z,98.20
2019-03-02T23:11:13.461Z,98.80
2019-03-02T23:13:51.517Z,99.30
2019-03-02T23:16:32.813Z,99.40
2019-03-02T23:19:01.861Z,99.90
2019-03-02T23:21:49.787Z,99.90
2019-03-02T23:24:38.693Z,99.90
2019-03-02T23:27:22.816Z,99.90
2019-03-02T23:29:58.213Z,99.90
2019-03-02T23:32:31.397Z,99.90
2019-03-02T23:35:14.286Z,99.90
2019-03-02T23:37:43.422Z,99.90
2019-03-02T23:40:42.824Z,99.90
2019-03-02T23:43:17.667Z,99.90
2019-03-02T23:45:56.570Z,99.90
2019-03-02T23:48:28.559Z,99.90
2019-03-02T23:51:09.838Z,99.90
2019-03-02T23:53:45.828Z,99.90
2019-03-02T23:56:53.865Z,99.90
2019-03-02T23:59:24.879Z,99.90
